Time;durP1;ratioP1;P1;durP2;ratioP2;P2;SDS_P1;SDS_P2;PMS_P1;PMS_P2;Temp;Humidity;BMP_temperature;BMP_pressure;BME280_temperature;BME280_humidity;BME280_pressure;Samples;Min_cycle;Max_cycle;Signal;HPM_P1;HPM_P2
2023/03/15 00:02:21;;;;;;;;;;;5.60;99.90;;;;;;4971817;28;19926;-91
2023/03/15 00:04:47;;;;;;;;;;;5.60;99.90;;;;;;4973552;28;19926;-93
2023/03/15 00:07:14;;;;;;;;;;;5.60;99.90;;;;;;4970635;28;20356;-91
2023/03/15 00:09:41;;;;;;;;;;;5.60;99.90;;;;;;4973380;28;20376;-91
2023/03/15 00:12:11;;;;;;;;;;;5.60;99.90;;;;;;4971219;28;20041;-91
2023/03/15 00:14:37;;;;;;;;;;;5.50;99.90;;;;;;4970617;28;19976;-91
2023/03/15 00:17:04;;;;;;;;;;;5.50;99.90;;;;;;4972250;28;19930;-91
2023/03/15 00:19:31;;;;;;;;;;;5.50;99.90;;;;;;4972669;28;19933;-92
2023/03/15 00:21:58;;;;;;;;;;;5.50;99.90;;;;;;4969816;28;20008;-91
2023/03/15 00:24:25;;;;;;;;;;;5.40;99.90;;;;;;4977342;28;20397;-91
2023/03/15 00:26:52;;;;;;;;;;;5.30;99.90;;;;;;4975312;28;19973;-91
2023/03/15 00:29:20;;;;;;;;;;;5.30;99.90;;;;;;4971594;28;20248;-92
2023/03/15 00:31:48;;;;;;;;;;;5.20;99.90;;;;;;4974176;28;19932;-91
2023/03/15 00:34:24;;;;;;;;;;;5.20;99.90;;;;;;4973019;28;19977;-91
2023/03/15 00:36:53;;;;;;;;;;;5.20;99.90;;;;;;4974006;28;19930;-92
2023/03/15 00:39:20;;;;;;;;;;;5.10;99.90;;;;;;4974049;28;19926;-91
2023/03/15 00:41:47;;;;;;;;;;;5.10;99.90;;;;;;4970233;28;19994;-91
2023/03/15 00:44:14;;;;;;;;;;;5.10;99.90;;;;;;4975739;28;19937;-91
2023/03/15 00:46:43;;;;;;;;;;;5.00;99.90;;;;;;4971738;28;19926;-93
2023/03/15 00:49:10;;;;;;;;;;;5.00;99.90;;;;;;4960709;28;19930;-91
2023/03/15 00:51:37;;;;;;;;;;;5.00;99.90;;;;;;4971823;28;19926;-91
2023/03/15 00:54:04;;;;;;;;;;;4.90;99.90;;;;;;4946666;28;19961;-92
2023/03/15 00:56:31;;;;;;;;;;;4.90;99.90;;;;;;4982221;28;20459;-92
2023/03/15 00:58:58;;;;;;;;;;;4.90;99.90;;;;;;4956848;28;19934;-91
2023/03/15 01:01:26;;;;;;;;;;;4.80;99.90;;;;;;4962013;28;20305;-92
2023/03/15 01:03:55;;;;;;;;;;;4.80;99.90;;;;;;4974868;28;20343;-92
2023/03/15 01:06:25;;;;;;;;;;;4.80;99.90;;;;;;4973775;28;19926;-91
2023/03/15 01:08:54;;;;;;;;;;;4.70;99.90;;;;;;4973582;28;19935;-92
2023/03/15 01:11:23;;;;;;;;;;;4.70;99.90;;;;;;4973625;28;19930;-91
2023/03/15 01:13:51;;;;;;;;;;;4.70;99.90;;;;;;4977767;28;19941;-90
2023/03/15 01:16:19;;;;;;;;;;;4.70;99.90;;;;;;4972889;28;20009;-92
2023/03/15 01:18:46;;;;;;;;;;;4.70;99.90;;;;;;4974929;28;19931;-91
2023/03/15 01:21:15;;;;;;;;;;;4.60;99.90;;;;;;4989660;28;19926;-90
2023/03/15 01:23:42;;;;;;;;;;;4.60;99.90;;;;;;4972367;28;19927;-90
2023/03/15 01:26:11;;;;;;;;;;;4.60;99.90;;;;;;4971754;28;19940;-91
2023/03/15 01:28:38;;;;;;;;;;;4.50;99.90;;;;;;4993674;28;19937;-91
2023/03/15 01:31:05;;;;;;;;;;;4.50;99.90;;;;;;4974099;28;19926;-89
2023/03/15 01:33:33;;;;;;;;;;;4.50;99.90;;;;;;4976968;28;19933;-91
2023/03/15 01:36:01;;;;;;;;;;;4.50;99.90;;;;;;4981011;28;19934;-92
2023/03/15 01:38:30;;;;;;;;;;;4.50;99.90;;;;;;4958265;28;19930;-91
2023/03/15 01:40:58;;;;;;;;;;;4.50;99.90;;;;;;4982652;28;19926;-92
2023/03/15 01:43:26;;;;;;;;;;;4.50;99.90;;;;;;4997841;28;19926;-91
2023/03/15 01:45:59;;;;;;;;;;;4.50;99.90;;;;;;4975742;28;20013;-91
2023/03/15 01:48:29;;;;;;;;;;;4.50;99.90;;;;;;4978243;28;19985;-91
2023/03/15 01:50:56;;;;;;;;;;;4.40;99.90;;;;;;4995368;28;19926;-90
2023/03/15 01:53:25;;;;;;;;;;;4.50;99.90;;;;;;4993926;28;20892;-91
2023/03/15 01:55:54;;;;;;;;;;;4.50;99.90;;;;;;4979067;28;19969;-91
2023/03/15 01:58:28;;;;;;;;;;;4.50;99.90;;;;;;4974741;28;19926;-91
2023/03/15 02:00:56;;;;;;;;;;;4.40;99.90;;;;;;5001620;28;19916;-92
2023/03/15 02:03:26;;;;;;;;;;;4.40;99.90;;;;;;4994651;28;19933;-92
2023/03/15 02:05:57;;;;;;;;;;;4.40;99.90;;;;;;4983571;28;19926;-92
2023/03/15 02:08:42;;;;;;;;;;;4.40;99.90;;;;;;4977493;28;20336;-92
2023/03/15 02:11:11;;;;;;;;;;;4.40;99.90;;;;;;4999437;28;19935;-92
2023/03/15 02:13:40;;;;;;;;;;;4.40;99.90;;;;;;4981272;28;19976;-93
2023/03/15 02:16:09;;;;;;;;;;;4.40;99.90;;;;;;4982174;28;20041;-93
2023/03/15 02:18:42;;;;;;;;;;;4.40;99.90;;;;;;4995944;28;19958;-92
2023/03/15 02:21:15;;;;;;;;;;;4.40;99.90;;;;;;4999437;28;19937;-92
2023/03/15 02:23:42;;;;;;;;;;;4.30;99.90;;;;;;4996481;28;19922;-90
2023/03/15 02:26:16;;;;;;;;;;;4.30;99.90;;;;;;4984002;28;19981;-91
2023/03/15 02:28:45;;;;;;;;;;;4.30;99.90;;;;;;4998190;28;19941;-91
2023/03/15 02:31:13;;;;;;;;;;;4.30;99.90;;;;;;4980098;28;19926;-90
2023/03/15 02:33:41;;;;;;;;;;;4.30;99.90;;;;;;4985096;28;19969;-90
2023/03/15 02:36:14;;;;;;;;;;;4.30;99.90;;;;;;5008447;28;19925;-91
2023/03/15 02:38:42;;;;;;;;;;;4.30;99.90;;;;;;4982567;28;19930;-91
2023/03/15 02:41:12;;;;;;;;;;;4.20;99.90;;;;;;4983621;28;19921;-92
2023/03/15 02:43:39;;;;;;;;;;;4.20;99.90;;;;;;4985556;28;19926;-91
2023/03/15 02:46:08;;;;;;;;;;;4.20;99.90;;;;;;4991265;28;19926;-92
2023/03/15 02:48:37;;;;;;;;;;;4.20;99.90;;;;;;4988044;28;19921;-92
2023/03/15 02:51:04;;;;;;;;;;;4.20;99.90;;;;;;4989337;28;20231;-91
2023/03/15 02:53:31;;;;;;;;;;;4.20;99.90;;;;;;4985332;28;19930;-93
2023/03/15 02:55:58;;;;;;;;;;;4.20;99.90;;;;;;5004486;28;20021;-91
2023/03/15 02:58:25;;;;;;;;;;;4.20;99.90;;;;;;4983543;28;19910;-92
2023/03/15 03:00:52;;;;;;;;;;;4.20;99.90;;;;;;4989132;28;19953;-92
2023/03/15 03:03:21;;;;;;;;;;;4.20;99.90;;;;;;4989928;28;19910;-91
2023/03/15 03:05:47;;;;;;;;;;;4.10;99.90;;;;;;4987612;28;19910;-92
2023/03/15 03:08:15;;;;;;;;;;;4.10;99.90;;;;;;4987270;28;19926;-92
2023/03/15 03:10:42;;;;;;;;;;;4.10;99.90;;;;;;4984633;28;19920;-90
2023/03/15 03:13:09;;;;;;;;;;;4.10;99.90;;;;;;4984282;28;19926;-92
2023/03/15 03:15:39;;;;;;;;;;;4.00;99.90;;;;;;4987002;28;19937;-91
2023/03/15 03:18:06;;;;;;;;;;;3.90;99.90;;;;;;4987712;28;19958;-93
2023/03/15 03:20:34;;;;;;;;;;;3.90;99.90;;;;;;4976186;28;19930;-91
2023/03/15 03:23:04;;;;;;;;;;;4.00;99.90;;;;;;4989444;28;19981;-91
2023/03/15 03:25:32;;;;;;;;;;;4.00;99.90;;;;;;4985316;28;19933;-93
2023/03/15 03:28:02;;;;;;;;;;;3.90;99.90;;;;;;5003474;28;19946;-93
2023/03/15 03:30:30;;;;;;;;;;;3.90;99.90;;;;;;4986933;28;19914;-91
2023/03/15 03:32:57;;;;;;;;;;;3.90;99.90;;;;;;4989305;28;19915;-91
2023/03/15 03:35:33;;;;;;;;;;;3.90;99.90;;;;;;5003200;28;19957;-92
2023/03/15 03:38:01;;;;;;;;;;;3.90;99.90;;;;;;4985766;28;19953;-92
2023/03/15 03:40:33;;;;;;;;;;;3.90;99.90;;;;;;4988565;28;19930;-92
2023/03/15 03:43:01;;;;;;;;;;;3.90;99.90;;;;;;4986831;28;19957;-92
2023/03/15 03:45:29;;;;;;;;;;;3.90;99.90;;;;;;5001529;28;19910;-92
2023/03/15 03:47:58;;;;;;;;;;;3.90;99.90;;;;;;4989546;28;19921;-93
2023/03/15 03:50:25;;;;;;;;;;;3.90;99.90;;;;;;4987985;28;19930;-92
2023/03/15 03:52:52;;;;;;;;;;;3.80;99.90;;;;;;4985561;28;19994;-93
2023/03/15 03:55:25;;;;;;;;;;;3.80;99.90;;;;;;4986281;28;20332;-92
2023/03/15 03:57:53;;;;;;;;;;;3.80;99.90;;;;;;4974303;28;19914;-91
2023/03/15 04:00:35;;;;;;;;;;;3.80;99.90;;;;;;4983445;28;20105;-92
2023/03/15 04:03:02;;;;;;;;;;;3.80;99.90;;;;;;4987973;28;19949;-92
2023/03/15 04:05:31;;;;;;;;;;;3.80;99.90;;;;;;4995775;28;19930;-92
2023/03/15 04:07:58;;;;;;;;;;;3.80;99.90;;;;;;4990397;28;19922;-92
2023/03/15 04:10:27;;;;;;;;;;;3.70;99.90;;;;;;4983259;28;19926;-92
2023/03/15 04:12:55;;;;;;;;;;;3.70;99.90;;;;;;4986120;28;19914;-91
2023/03/15 04:15:22;;;;;;;;;;;3.70;99.90;;;;;;4993065;28;19929;-91
2023/03/15 04:17:54;;;;;;;;;;;3.70;99.90;;;;;;4988698;28;19910;-92
2023/03/15 04:20:21;;;;;;;;;;;3.70;99.90;;;;;;4987857;28;19926;-92
2023/03/15 04:22:49;;;;;;;;;;;3.60;99.90;;;;;;4988376;28;20400;-92
2023/03/15 04:25:41;;;;;;;;;;;3.60;99.90;;;;;;4981766;28;19941;-92
2023/03/15 04:28:29;;;;;;;;;;;3.60;99.90;;;;;;4982092;28;19929;-93
2023/03/15 04:31:15;;;;;;;;;;;3.60;99.90;;;;;;5004528;28;19925;-92
2023/03/15 04:34:14;;;;;;;;;;;3.60;99.90;;;;;;4993535;28;19914;-90
2023/03/15 04:37:00;;;;;;;;;;;3.60;99.90;;;;;;4989370;28;19934;-92
2023/03/15 04:39:47;;;;;;;;;;;3.60;99.90;;;;;;4989492;28;19969;-91
2023/03/15 04:42:35;;;;;;;;;;;3.60;99.90;;;;;;4993762;28;19926;-92
2023/03/15 04:45:13;;;;;;;;;;;3.60;99.90;;;;;;5004737;28;19953;-92
2023/03/15 04:48:01;;;;;;;;;;;3.60;99.90;;;;;;4971641;28;19934;-91
2023/03/15 04:50:38;;;;;;;;;;;3.60;99.90;;;;;;5000667;28;19931;-91
2023/03/15 04:53:38;;;;;;;;;;;3.60;99.90;;;;;;4985647;28;19970;-92
2023/03/15 04:56:24;;;;;;;;;;;3.60;99.90;;;;;;4992807;28;19978;-90
2023/03/15 04:59:11;;;;;;;;;;;3.60;99.90;;;;;;4978869;28;19942;-84
2023/03/15 05:02:07;;;;;;;;;;;3.60;99.90;;;;;;4957177;28;19938;-88
2023/03/15 05:04:57;;;;;;;;;;;3.60;99.90;;;;;;4992770;28;19933;-89
2023/03/15 05:07:42;;;;;;;;;;;3.60;99.90;;;;;;4988368;28;19937;-89
2023/03/15 05:10:24;;;;;;;;;;;3.50;99.90;;;;;;4994193;28;20244;-90
2023/03/15 05:13:17;;;;;;;;;;;3.60;99.90;;;;;;4971526;28;19934;-89
2023/03/15 05:16:21;;;;;;;;;;;3.60;99.90;;;;;;4999987;28;19968;-88
2023/03/15 05:19:11;;;;;;;;;;;3.50;99.90;;;;;;4983127;28;19926;-89
2023/03/15 05:21:56;;;;;;;;;;;3.50;99.90;;;;;;5001113;28;20341;-88
2023/03/15 05:24:37;;;;;;;;;;;3.50;99.90;;;;;;4973183;28;20116;-89
2023/03/15 05:27:22;;;;;;;;;;;3.60;99.90;;;;;;4984859;28;19957;-88
2023/03/15 05:30:13;;;;;;;;;;;3.60;99.90;;;;;;4979209;28;19926;-89
2023/03/15 05:33:03;;;;;;;;;;;3.50;99.90;;;;;;4988424;28;19940;-88
2023/03/15 05:35:52;;;;;;;;;;;3.50;99.90;;;;;;4960782;28;19960;-89
2023/03/15 05:38:36;;;;;;;;;;;3.50;99.90;;;;;;4981822;28;19926;-89
2023/03/15 05:41:21;;;;;;;;;;;3.50;99.90;;;;;;4990576;28;20066;-89
2023/03/15 05:44:05;;;;;;;;;;;3.50;99.90;;;;;;4988420;28;19915;-90
2023/03/15 05:46:58;;;;;;;;;;;3.50;99.90;;;;;;4993468;28;19933;-89
2023/03/15 05:49:36;;;;;;;;;;;3.50;99.90;;;;;;5000244;28;19914;-89
2023/03/15 05:52:18;;;;;;;;;;;3.50;99.90;;;;;;4985133;28;19945;-89
2023/03/15 05:55:08;;;;;;;;;;;3.50;99.90;;;;;;4989124;28;19922;-89
2023/03/15 05:58:01;;;;;;;;;;;3.50;99.90;;;;;;5008299;28;19914;-89
2023/03/15 06:00:44;;;;;;;;;;;3.50;99.90;;;;;;4987487;28;19918;-91
2023/03/15 06:03:25;;;;;;;;;;;3.50;99.90;;;;;;4988330;28;21979;-88
2023/03/15 06:05:59;;;;;;;;;;;3.50;99.90;;;;;;5004590;28;19933;-89
2023/03/15 06:08:34;;;;;;;;;;;3.40;99.90;;;;;;4985921;28;19926;-84
2023/03/15 06:11:01;;;;;;;;;;;3.40;99.90;;;;;;4996270;28;20092;-89
2023/03/15 06:13:32;;;;;;;;;;;3.40;99.90;;;;;;4983107;28;19954;-90
2023/03/15 06:16:01;;;;;;;;;;;3.40;99.90;;;;;;5000987;28;21123;-89
2023/03/15 06:18:28;;;;;;;;;;;3.40;99.90;;;;;;4995010;28;19938;-90
2023/03/15 06:20:55;;;;;;;;;;;3.40;99.90;;;;;;4979561;28;19910;-89
2023/03/15 06:23:23;;;;;;;;;;;3.40;99.90;;;;;;4993831;28;19981;-90
2023/03/15 06:25:50;;;;;;;;;;;3.40;99.90;;;;;;4993282;28;19910;-87
2023/03/15 06:28:18;;;;;;;;;;;3.40;99.90;;;;;;4991154;28;19934;-90
2023/03/15 06:30:51;;;;;;;;;;;3.40;99.90;;;;;;4989508;28;20023;-89
2023/03/15 06:33:23;;;;;;;;;;;3.30;99.90;;;;;;4996550;28;19921;-90
2023/03/15 06:35:50;;;;;;;;;;;3.40;99.90;;;;;;4991027;28;19925;-90
2023/03/15 06:38:17;;;;;;;;;;;3.40;99.90;;;;;;5001460;28;19926;-90
2023/03/15 06:40:45;;;;;;;;;;;3.30;99.90;;;;;;4993414;28;20017;-91
2023/03/15 06:43:17;;;;;;;;;;;3.30;99.90;;;;;;4991862;28;19997;-90
2023/03/15 06:45:44;;;;;;;;;;;3.30;99.90;;;;;;5007108;28;19928;-88
2023/03/15 06:48:12;;;;;;;;;;;3.30;99.90;;;;;;4992981;28;19945;-89
2023/03/15 06:50:39;;;;;;;;;;;3.30;99.90;;;;;;4989800;28;19933;-88
2023/03/15 06:53:06;;;;;;;;;;;3.30;99.90;;;;;;4996115;28;19925;-90
2023/03/15 06:55:33;;;;;;;;;;;3.30;99.90;;;;;;4989553;28;19932;-88
2023/03/15 06:58:01;;;;;;;;;;;3.30;99.90;;;;;;4987469;28;19954;-86
2023/03/15 07:00:28;;;;;;;;;;;3.30;99.90;;;;;;4999066;28;19941;-88
2023/03/15 07:02:55;;;;;;;;;;;3.20;99.90;;;;;;4988736;28;19940;-88
2023/03/15 07:05:22;;;;;;;;;;;3.20;99.90;;;;;;4992543;28;20005;-86
2023/03/15 07:07:49;;;;;;;;;;;3.20;99.90;;;;;;4991722;28;19914;-87
2023/03/15 07:10:16;;;;;;;;;;;3.20;99.90;;;;;;4985748;28;19910;-89
2023/03/15 07:12:43;;;;;;;;;;;3.20;99.90;;;;;;4988233;28;19984;-87
2023/03/15 07:15:11;;;;;;;;;;;3.20;99.90;;;;;;4984718;28;19926;-88
2023/03/15 07:17:38;;;;;;;;;;;3.20;99.90;;;;;;5007070;28;19910;-88
2023/03/15 07:20:06;;;;;;;;;;;3.20;99.90;;;;;;4990789;28;20407;-88
2023/03/15 07:22:33;;;;;;;;;;;3.20;99.90;;;;;;4990933;28;19930;-89
2023/03/15 07:24:59;;;;;;;;;;;3.20;99.90;;;;;;4992504;28;19930;-87
2023/03/15 07:27:28;;;;;;;;;;;3.20;99.90;;;;;;5005308;28;19934;-88
2023/03/15 07:29:55;;;;;;;;;;;3.20;99.90;;;;;;4991519;28;19925;-89
2023/03/15 07:32:23;;;;;;;;;;;3.20;99.90;;;;;;4989022;28;19922;-88
2023/03/15 07:34:50;;;;;;;;;;;3.20;99.90;;;;;;4985888;28;19914;-90
2023/03/15 07:37:17;;;;;;;;;;;3.20;99.90;;;;;;5001222;28;20282;-88
2023/03/15 07:39:44;;;;;;;;;;;3.20;99.90;;;;;;4985220;28;19926;-87
2023/03/15 07:42:13;;;;;;;;;;;3.20;99.90;;;;;;4978343;28;19980;-90
2023/03/15 07:44:50;;;;;;;;;;;3.20;99.90;;;;;;5004515;28;19927;-89
2023/03/15 07:47:17;;;;;;;;;;;3.20;99.90;;;;;;4995511;28;19989;-88
2023/03/15 07:49:45;;;;;;;;;;;3.10;99.90;;;;;;4995577;28;19937;-88
2023/03/15 07:52:12;;;;;;;;;;;3.10;99.90;;;;;;4998040;28;19954;-89
2023/03/15 07:54:39;;;;;;;;;;;3.10;99.90;;;;;;4993851;28;19937;-89
2023/03/15 07:57:06;;;;;;;;;;;3.10;99.90;;;;;;4989079;28;19953;-88
2023/03/15 07:59:33;;;;;;;;;;;3.10;99.90;;;;;;4990997;28;19926;-87
2023/03/15 08:02:00;;;;;;;;;;;3.10;99.90;;;;;;4993646;28;20348;-89
2023/03/15 08:04:27;;;;;;;;;;;3.10;99.90;;;;;;4996417;28;19949;-88
2023/03/15 08:06:56;;;;;;;;;;;3.10;99.90;;;;;;4993188;28;19920;-88
2023/03/15 08:09:23;;;;;;;;;;;3.10;99.90;;;;;;4995465;28;19922;-87
2023/03/15 08:11:50;;;;;;;;;;;3.10;99.90;;;;;;4992860;28;19914;-88
2023/03/15 08:14:17;;;;;;;;;;;3.10;99.90;;;;;;5005652;28;19973;-89
2023/03/15 08:16:44;;;;;;;;;;;3.10;99.90;;;;;;4991107;28;19958;-87
2023/03/15 08:19:11;;;;;;;;;;;3.10;99.90;;;;;;5011648;28;19914;-88
2023/03/15 08:21:38;;;;;;;;;;;3.10;99.90;;;;;;5006932;28;20782;-88
2023/03/15 08:24:06;;;;;;;;;;;3.00;99.90;;;;;;5011594;28;19954;-89
2023/03/15 08:26:33;;;;;;;;;;;3.00;99.90;;;;;;4995541;28;19934;-88
2023/03/15 08:29:00;;;;;;;;;;;3.00;99.90;;;;;;4995699;28;19926;-88
2023/03/15 08:31:27;;;;;;;;;;;3.10;99.90;;;;;;4995150;28;19922;-89
2023/03/15 08:33:54;;;;;;;;;;;3.00;99.90;;;;;;4991638;28;19945;-89
2023/03/15 08:36:21;;;;;;;;;;;3.00;99.90;;;;;;4993692;28;19957;-87
2023/03/15 08:38:48;;;;;;;;;;;3.00;99.90;;;;;;5014501;28;19920;-87
2023/03/15 08:41:16;;;;;;;;;;;3.00;99.90;;;;;;4990848;28;19941;-89
2023/03/15 08:43:44;;;;;;;;;;;3.00;99.90;;;;;;4994194;28;19926;-87
2023/03/15 08:46:11;;;;;;;;;;;3.00;99.90;;;;;;4998150;28;19930;-88
2023/03/15 08:48:38;;;;;;;;;;;3.00;99.90;;;;;;5008187;28;19952;-88
2023/03/15 08:51:07;;;;;;;;;;;3.00;99.90;;;;;;4997306;28;20229;-90
2023/03/15 08:53:34;;;;;;;;;;;3.00;99.90;;;;;;4998913;28;19925;-88
2023/03/15 08:56:01;;;;;;;;;;;3.00;99.90;;;;;;5011178;28;19977;-87
2023/03/15 08:58:30;;;;;;;;;;;3.00;99.90;;;;;;5012168;28;20329;-88
2023/03/15 09:00:57;;;;;;;;;;;3.00;99.90;;;;;;4994925;28;19926;-87
2023/03/15 09:03:24;;;;;;;;;;;3.00;99.90;;;;;;5000276;28;19926;-88
2023/03/15 09:05:55;;;;;;;;;;;3.00;99.90;;;;;;5010345;28;19973;-87
2023/03/15 09:08:24;;;;;;;;;;;2.90;99.90;;;;;;4992795;28;19926;-88
2023/03/15 09:10:53;;;;;;;;;;;3.00;99.90;;;;;;4993433;28;19915;-87
2023/03/15 09:13:20;;;;;;;;;;;3.00;99.90;;;;;;4992969;28;19949;-88
2023/03/15 09:15:51;;;;;;;;;;;3.00;99.90;;;;;;4997545;28;19961;-88
2023/03/15 09:18:18;;;;;;;;;;;3.00;99.90;;;;;;4994142;28;19953;-88
2023/03/15 09:20:45;;;;;;;;;;;3.00;99.90;;;;;;4992644;28;20132;-88
2023/03/15 09:23:13;;;;;;;;;;;3.00;99.90;;;;;;4995191;28;19914;-88
2023/03/15 09:25:40;;;;;;;;;;;3.00;99.90;;;;;;4994920;28;19910;-87
2023/03/15 09:28:08;;;;;;;;;;;2.90;99.90;;;;;;4977035;28;19936;-88
2023/03/15 09:30:35;;;;;;;;;;;3.00;99.90;;;;;;4991654;28;19926;-88
2023/03/15 09:33:04;;;;;;;;;;;3.00;99.90;;;;;;4996270;28;19910;-88
2023/03/15 09:35:31;;;;;;;;;;;3.00;99.90;;;;;;4993329;28;19914;-88
2023/03/15 09:37:58;;;;;;;;;;;3.00;99.90;;;;;;5001593;28;20180;-88
2023/03/15 09:40:27;;;;;;;;;;;3.00;99.90;;;;;;4995663;28;19982;-89
2023/03/15 09:43:05;;;;;;;;;;;2.90;99.90;;;;;;4997331;28;20271;-88
2023/03/15 09:45:40;;;;;;;;;;;2.90;99.90;;;;;;4994819;28;19985;-87
2023/03/15 09:48:10;;;;;;;;;;;2.90;99.90;;;;;;5009191;28;19933;-87
2023/03/15 09:50:41;;;;;;;;;;;2.90;99.90;;;;;;4994356;28;19914;-87
2023/03/15 09:53:12;;;;;;;;;;;2.90;99.90;;;;;;4996511;28;19926;-89
2023/03/15 09:55:39;;;;;;;;;;;3.00;99.90;;;;;;4992618;28;19930;-89
2023/03/15 09:58:11;;;;;;;;;;;3.00;99.90;;;;;;4988404;28;19930;-89
2023/03/15 10:00:39;;;;;;;;;;;3.00;99.90;;;;;;5005800;28;19915;-87
2023/03/15 10:03:10;;;;;;;;;;;3.00;99.90;;;;;;4991728;28;19953;-89
2023/03/15 10:05:40;;;;;;;;;;;3.00;99.90;;;;;;4994531;28;19922;-89
2023/03/15 10:08:11;;;;;;;;;;;3.00;99.90;;;;;;4993235;28;19933;-88
2023/03/15 10:10:40;;;;;;;;;;;3.00;99.90;;;;;;4987261;28;19930;-89
2023/03/15 10:13:18;;;;;;;;;;;3.10;99.90;;;;;;4995982;28;19937;-88
2023/03/15 10:15:50;;;;;;;;;;;3.10;99.90;;;;;;4993793;28;19926;-89
2023/03/15 10:18:26;;;;;;;;;;;3.10;99.90;;;;;;4994673;28;19929;-88
2023/03/15 10:20:58;;;;;;;;;;;3.10;99.90;;;;;;4989979;28;19925;-89
2023/03/15 10:23:30;;;;;;;;;;;3.10;99.90;;;;;;5007478;28;19932;-89
2023/03/15 10:25:58;;;;;;;;;;;3.10;99.90;;;;;;4996063;28;19938;-88
2023/03/15 10:28:27;;;;;;;;;;;3.20;99.90;;;;;;4986750;28;19941;-88
2023/03/15 10:30:54;;;;;;;;;;;3.20;99.90;;;;;;4988723;28;20090;-87
2023/03/15 10:33:26;;;;;;;;;;;3.30;99.90;;;;;;4990440;28;19930;-88
2023/03/15 10:35:53;;;;;;;;;;;3.20;99.90;;;;;;4987383;28;19939;-88
2023/03/15 10:38:22;;;;;;;;;;;3.30;99.90;;;;;;4991927;28;19926;-90
2023/03/15 10:40:49;;;;;;;;;;;3.20;99.90;;;;;;4985478;28;19916;-87
2023/03/15 10:43:23;;;;;;;;;;;3.30;99.90;;;;;;4986015;28;19930;-88
2023/03/15 10:46:01;;;;;;;;;;;3.30;99.90;;;;;;4988947;28;19962;-89
2023/03/15 10:48:29;;;;;;;;;;;3.30;99.90;;;;;;4989754;28;20033;-88
2023/03/15 10:50:56;;;;;;;;;;;3.40;99.90;;;;;;4989140;28;19927;-88
2023/03/15 10:53:25;;;;;;;;;;;3.40;99.90;;;;;;4979578;28;19933;-87
2023/03/15 10:55:59;;;;;;;;;;;3.40;99.90;;;;;;4983545;28;19937;-88
2023/03/15 10:58:27;;;;;;;;;;;3.40;99.90;;;;;;4989136;28;19977;-88
2023/03/15 11:00:58;;;;;;;;;;;3.40;99.90;;;;;;4984058;28;19989;-87
2023/03/15 11:03:26;;;;;;;;;;;3.40;99.90;;;;;;4990067;28;19926;-88
2023/03/15 11:05:54;;;;;;;;;;;3.40;99.90;;;;;;4986083;28;19926;-88
2023/03/15 11:08:21;;;;;;;;;;;3.50;99.90;;;;;;4990576;28;19945;-89
2023/03/15 11:10:58;;;;;;;;;;;3.50;99.90;;;;;;4983896;28;19945;-88
2023/03/15 11:13:26;;;;;;;;;;;3.50;99.90;;;;;;5002638;28;19914;-90
2023/03/15 11:15:54;;;;;;;;;;;3.50;99.90;;;;;;4988302;28;19914;-89
2023/03/15 11:18:25;;;;;;;;;;;3.50;99.90;;;;;;4990311;28;19993;-91
2023/03/15 11:20:54;;;;;;;;;;;3.50;99.90;;;;;;4998327;28;19982;-91
2023/03/15 11:23:24;;;;;;;;;;;3.50;99.90;;;;;;4989203;28;19934;-89
2023/03/15 11:25:51;;;;;;;;;;;3.60;99.90;;;;;;4991296;28;19941;-91
2023/03/15 11:28:20;;;;;;;;;;;3.60;99.90;;;;;;4988050;28;19930;-90
2023/03/15 11:30:48;;;;;;;;;;;3.60;99.90;;;;;;4983933;28;19914;-89
2023/03/15 11:33:22;;;;;;;;;;;3.60;99.90;;;;;;4989912;28;19930;-90
2023/03/15 11:35:49;;;;;;;;;;;3.60;99.90;;;;;;4986454;28;19958;-91
2023/03/15 11:38:20;;;;;;;;;;;3.70;99.90;;;;;;4990201;28;19914;-90
2023/03/15 11:40:50;;;;;;;;;;;3.70;99.90;;;;;;4989685;28;19933;-90
2023/03/15 11:43:18;;;;;;;;;;;3.70;99.90;;;;;;4987522;28;19990;-89
2023/03/15 11:45:50;;;;;;;;;;;3.80;99.90;;;;;;4987804;28;19926;-89
2023/03/15 11:48:39;;;;;;;;;;;3.80;99.90;;;;;;4991989;28;19941;-91
2023/03/15 11:51:07;;;;;;;;;;;3.80;99.90;;;;;;4986144;28;19969;-90
2023/03/15 11:53:36;;;;;;;;;;;3.80;99.90;;;;;;4984531;28;19934;-90
2023/03/15 11:56:19;;;;;;;;;;;3.80;99.90;;;;;;4982677;28;19936;-90
2023/03/15 11:59:00;;;;;;;;;;;3.80;99.90;;;;;;4989519;28;19925;-91
2023/03/15 12:01:29;;;;;;;;;;;3.80;99.90;;;;;;4989963;28;19914;-92
2023/03/15 12:04:10;;;;;;;;;;;3.90;99.90;;;;;;4990529;28;19930;-91
2023/03/15 12:06:40;;;;;;;;;;;3.80;99.90;;;;;;4992240;28;19978;-92
2023/03/15 12:09:25;;;;;;;;;;;3.80;99.90;;;;;;4992105;28;20052;-92
2023/03/15 12:11:57;;;;;;;;;;;3.90;99.90;;;;;;4985153;28;19930;-85
2023/03/15 12:14:28;;;;;;;;;;;3.90;99.90;;;;;;4984497;28;19929;-92
2023/03/15 12:17:14;;;;;;;;;;;3.90;99.90;;;;;;4987834;28;19930;-93
2023/03/15 12:19:46;;;;;;;;;;;4.00;99.90;;;;;;4987085;28;19926;-92
2023/03/15 12:22:15;;;;;;;;;;;4.00;99.90;;;;;;4983852;28;19933;-91
2023/03/15 12:24:43;;;;;;;;;;;4.00;99.90;;;;;;4997023;28;19926;-91
2023/03/15 12:27:15;;;;;;;;;;;4.00;99.90;;;;;;4984417;28;21337;-91
2023/03/15 12:29:43;;;;;;;;;;;4.00;99.90;;;;;;4976750;28;19934;-91
2023/03/15 12:32:12;;;;;;;;;;;4.10;99.90;;;;;;5003944;28;19977;-92
2023/03/15 12:34:46;;;;;;;;;;;4.00;99.90;;;;;;4992597;28;19949;-91
2023/03/15 12:37:15;;;;;;;;;;;4.10;99.90;;;;;;4997946;28;19925;-83
2023/03/15 12:39:43;;;;;;;;;;;4.10;99.90;;;;;;4968142;28;19926;-89
2023/03/15 12:42:28;;;;;;;;;;;4.20;99.90;;;;;;4977024;28;19930;-88
2023/03/15 12:45:15;;;;;;;;;;;4.20;99.90;;;;;;4961439;28;20009;-88
2023/03/15 12:47:46;;;;;;;;;;;4.30;99.90;;;;;;4969383;28;20384;-88
2023/03/15 12:50:28;;;;;;;;;;;4.30;99.90;;;;;;4971772;28;19926;-89
2023/03/15 12:52:58;;;;;;;;;;;4.30;99.90;;;;;;4984917;28;19953;-87
2023/03/15 12:55:28;;;;;;;;;;;4.30;99.90;;;;;;4979647;28;19926;-89
2023/03/15 12:57:56;;;;;;;;;;;4.30;99.90;;;;;;4980784;28;19958;-90
2023/03/15 13:00:26;;;;;;;;;;;4.30;99.90;;;;;;4976326;28;20129;-87
2023/03/15 13:02:54;;;;;;;;;;;4.40;99.90;;;;;;4976893;28;20006;-88
2023/03/15 13:05:28;;;;;;;;;;;4.40;99.90;;;;;;4994042;28;19980;-87
2023/03/15 13:08:04;;;;;;;;;;;4.50;99.90;;;;;;4982204;28;20355;-88
2023/03/15 13:10:39;;;;;;;;;;;4.50;99.90;;;;;;4969914;28;19934;-88
2023/03/15 13:13:22;;;;;;;;;;;4.40;99.90;;;;;;4976018;28;19937;-88
2023/03/15 13:15:57;;;;;;;;;;;4.50;99.90;;;;;;4975669;28;19969;-91
2023/03/15 13:18:25;;;;;;;;;;;4.50;99.90;;;;;;4976825;28;20689;-89
2023/03/15 13:21:00;;;;;;;;;;;4.60;99.90;;;;;;4985908;28;19930;-90
2023/03/15 13:23:29;;;;;;;;;;;4.60;99.90;;;;;;4972159;28;20069;-91
2023/03/15 13:26:04;;;;;;;;;;;4.70;99.90;;;;;;4992023;28;20448;-90
2023/03/15 13:28:36;;;;;;;;;;;4.70;99.90;;;;;;4974578;28;20059;-90
2023/03/15 13:31:11;;;;;;;;;;;4.70;99.90;;;;;;4970930;28;20918;-85
2023/03/15 13:33:38;;;;;;;;;;;4.70;99.90;;;;;;4982259;28;20895;-87
2023/03/15 13:36:10;;;;;;;;;;;4.80;99.90;;;;;;4970598;28;20255;-84
2023/03/15 13:38:41;;;;;;;;;;;4.80;99.90;;;;;;4977110;28;20020;-89
2023/03/15 13:41:16;;;;;;;;;;;4.80;99.90;;;;;;4973120;28;19937;-84
2023/03/15 13:43:43;;;;;;;;;;;4.80;99.90;;;;;;4976633;28;19950;-91
2023/03/15 13:46:10;;;;;;;;;;;4.80;99.90;;;;;;4978996;28;19929;-91
2023/03/15 13:48:40;;;;;;;;;;;4.80;99.90;;;;;;4984872;28;19933;-89
2023/03/15 13:51:11;;;;;;;;;;;4.80;99.90;;;;;;4975678;28;20404;-93
2023/03/15 13:53:38;;;;;;;;;;;4.80;99.90;;;;;;4974673;28;20019;-92
2023/03/15 13:56:08;;;;;;;;;;;4.90;99.90;;;;;;4977414;28;19985;-89
2023/03/15 13:58:36;;;;;;;;;;;4.90;99.90;;;;;;4973359;28;19930;-89
2023/03/15 14:01:06;;;;;;;;;;;4.90;99.90;;;;;;4974529;28;19934;-92
2023/03/15 14:03:33;;;;;;;;;;;4.90;99.90;;;;;;4988523;28;19980;-90
2023/03/15 14:06:00;;;;;;;;;;;4.90;99.90;;;;;;4974593;28;20289;-90
2023/03/15 14:08:31;;;;;;;;;;;4.90;99.90;;;;;;4975566;28;20421;-90
2023/03/15 14:11:00;;;;;;;;;;;4.90;99.90;;;;;;4967074;28;20468;-90
2023/03/15 14:13:32;;;;;;;;;;;5.00;99.90;;;;;;4972201;28;20381;-89
2023/03/15 14:16:00;;;;;;;;;;;5.00;99.90;;;;;;4978776;28;19930;-90
2023/03/15 14:18:30;;;;;;;;;;;5.10;99.90;;;;;;4964401;28;19934;-90
2023/03/15 14:20:59;;;;;;;;;;;5.10;99.90;;;;;;4972619;28;20297;-89
2023/03/15 14:23:26;;;;;;;;;;;5.10;99.90;;;;;;4970299;28;19965;-90
2023/03/15 14:25:54;;;;;;;;;;;5.10;99.90;;;;;;4961602;28;19981;-89
2023/03/15 14:28:23;;;;;;;;;;;5.10;99.90;;;;;;4968024;28;19930;-89
2023/03/15 14:30:56;;;;;;;;;;;5.10;99.90;;;;;;4973943;28;19954;-90
2023/03/15 14:33:24;;;;;;;;;;;5.10;99.90;;;;;;4983610;28;19957;-89
2023/03/15 14:35:57;;;;;;;;;;;5.10;99.90;;;;;;4965165;28;19930;-90
2023/03/15 14:38:26;;;;;;;;;;;5.20;99.90;;;;;;4970531;28;19932;-89
2023/03/15 14:40:54;;;;;;;;;;;5.20;99.90;;;;;;4965589;28;20662;-90
2023/03/15 14:43:21;;;;;;;;;;;5.10;99.90;;;;;;4967801;28;19930;-91
2023/03/15 14:45:48;;;;;;;;;;;5.10;99.90;;;;;;4967934;28;19926;-89
2023/03/15 14:48:21;;;;;;;;;;;5.10;99.90;;;;;;4971520;28;20161;-90
2023/03/15 14:50:48;;;;;;;;;;;5.10;99.90;;;;;;4981264;28;19979;-89
2023/03/15 14:53:17;;;;;;;;;;;5.10;99.90;;;;;;4970998;28;19930;-90
2023/03/15 14:55:44;;;;;;;;;;;5.10;99.90;;;;;;4985133;28;19981;-90